Impacts TAF Board INFO
FOR SITUATIONAL AWARENESS. NOT TO BE USED FOR FLIGHT PLANNING PURPOSES.
IDs:

KLGA - New York/La Guardia, NY, US

Issued at 0225 UTC 22 Jun 2018
Updated at 0320 UTC 22 Jun 2018
Potential Impact None Slight Moderate High
Time<<22/16Z 22/17Z 22/18Z 22/19Z 22/20Z 22/21Z 22/22Z 22/23Z 23/00Z 23/01Z 23/02Z 23/03Z 23/04Z>>
Type PRVL PRVL PRVL PRVL PRVL PRVL PRVL PRVL PRVL PRVL PRVL PRVL PRVL
VIS >6 >6 >6 >6 >6 >6 >6 >6 >6 >6 >6 >6 >6
CIG 150 150 150 150 150 150 150 150 150 150 150 60 60
Cover BKN BKN OVC OVC OVC OVC OVC OVC OVC OVC OVC OVC OVC
FltCat VFR VFR VFR VFR VFR VFR VFR VFR VFR VFR VFR VFR VFR
WX -- -- -- -- -- -- -- -- -- -- -- VCSH VCSH
WDir 70 70 110 110 110 110 110 110 110 110 110 80 80
WSpd 13 13 14 14 14 14 14 14 14 14 14 11 11
WGst -- -- -- -- -- -- -- -- -- -- -- -- --

Raw TAF
KLGA 220225Z 2202/2306 08005KT P6SM FEW250
  FM220900 06009KT P6SM FEW030 BKN250
  TEMPO 2209/2212 6SM BR BKN007
  FM221500 07013KT P6SM BKN150
  FM221800 11014KT P6SM OVC150
  FM230300 08011KT P6SM VCSH SCT025 OVC060


METAR Board
Radar Display
Forecast Discussion

FOR SITUATIONAL AWARENESS. NOT TO BE USED FOR FLIGHT PLANNING PURPOSES.